Terminal Aerodrome Forecast
Issued by NWS Missoula, MT

Home | Current Version | Previous Version | Text Only | Print | Product List | Glossary On
Versions: 1 2 3 4 5 6 7 8 9 10 11 12 13 14 15 16 17 18 19 20 21 22 23 24
000
FTUS45 KMSO 311720
TAFGPI
TAF
KGPI 311720Z 3118/0118 00000KT 3SM BR SCT002
     FM311900 VRB03KT P6SM FEW004 SCT150
     FM312000 19004KT P6SM SCT150=

USA.gov is the U.S. government's official web portal to all federal, state and local government web resources and services.